Time;durP1;ratioP1;P1;durP2;ratioP2;P2;SDS_P1;SDS_P2;PMS_P1;PMS_P2;Temp;Humidity;BMP_temperature;BMP_pressure;BME280_temperature;BME280_humidity;BME280_pressure;Samples;Min_cycle;Max_cycle;Signal;HPM_P1;HPM_P2
2022/05/27 00:02:00;;;;;;;4.45;2.13;;;10.90;1.00;11.60;94709.00;;;;7390959;19;20128;-74
2022/05/27 00:04:28;;;;;;;4.85;2.33;;;10.90;1.00;11.90;94703.00;;;;7389538;19;20127;-75
2022/05/27 00:07:04;;;;;;;5.05;2.15;;;11.00;1.00;12.00;94717.00;;;;7389504;19;20594;-76
2022/05/27 00:09:38;;;;;;;4.00;2.20;;;11.10;99.90;12.00;94716.00;;;;7387759;19;20490;-74
2022/05/27 00:12:14;;;;;;;4.40;2.30;;;11.10;99.90;12.00;94699.00;;;;7390110;19;20137;-74
2022/05/27 00:14:41;;;;;;;3.22;2.15;;;11.10;99.90;11.80;94690.00;;;;7389854;19;20591;-74
2022/05/27 00:17:08;;;;;;;3.95;2.30;;;11.20;99.90;12.10;94693.00;;;;7388989;19;20129;-76
2022/05/27 00:19:42;;;;;;;4.10;2.35;;;11.20;99.90;12.00;94682.00;;;;7398242;19;20153;-74
2022/05/27 00:22:09;;;;;;;3.35;1.95;;;11.20;99.90;11.80;94694.00;;;;7394532;19;20172;-76
2022/05/27 00:24:36;;;;;;;4.65;2.15;;;11.20;99.90;11.80;94697.00;;;;7398224;19;20123;-76
2022/05/27 00:27:10;;;;;;;4.47;2.80;;;11.20;99.90;12.00;94695.00;;;;7395961;19;20133;-77
2022/05/27 00:29:38;;;;;;;5.88;2.22;;;11.20;99.90;11.80;94690.00;;;;7397444;19;20125;-74
2022/05/27 00:32:26;;;;;;;6.15;2.55;;;11.10;99.90;11.80;94677.00;;;;7396424;19;20170;-75
2022/05/27 00:35:00;;;;;;;5.63;2.80;;;11.10;99.90;12.10;94683.00;;;;7397223;19;20149;-75
2022/05/27 00:37:27;;;;;;;3.58;2.33;;;11.10;99.90;11.90;94682.00;;;;7394600;19;20500;-75
2022/05/27 00:39:56;;;;;;;4.57;2.20;;;11.10;99.90;12.00;94693.00;;;;7397074;19;20129;-75
2022/05/27 00:42:30;;;;;;;3.67;2.42;;;11.10;99.90;11.80;94682.00;;;;7395739;19;20136;-75
2022/05/27 00:44:57;;;;;;;5.68;2.30;;;11.10;99.90;11.80;94683.00;;;;7396390;19;20120;-75
2022/05/27 00:47:32;;;;;;;4.93;2.40;;;11.10;99.90;12.00;94666.00;;;;7395910;19;20125;-75
2022/05/27 00:50:12;;;;;;;6.10;2.15;;;11.10;99.90;11.90;94683.00;;;;7395309;19;20188;-75
2022/05/27 00:52:42;;;;;;;4.38;1.90;;;11.10;99.90;11.70;94672.00;;;;7396893;19;20599;-75
2022/05/27 00:55:27;;;;;;;3.03;2.40;;;11.10;99.90;11.90;94671.00;;;;7395510;19;20725;-75
2022/05/27 00:58:17;;;;;;;4.68;2.50;;;11.10;99.90;11.70;94671.00;;;;7395343;19;20605;-75
2022/05/27 01:00:51;;;;;;;2.28;1.83;;;11.10;1.40;11.70;94683.00;;;;7396478;19;20149;-75
2022/05/27 01:03:20;;;;;;;5.65;2.28;;;11.10;1.00;12.10;94680.00;;;;7396303;19;20145;-75
2022/05/27 01:05:47;;;;;;;2.70;2.17;;;11.10;99.90;12.10;94664.00;;;;7394927;19;20154;-75
2022/05/27 01:08:37;;;;;;;2.95;2.20;;;11.20;99.90;12.00;94652.00;;;;7393627;19;20630;-75
2022/05/27 01:11:20;;;;;;;4.38;1.85;;;11.10;99.90;12.00;94673.00;;;;7396708;19;20614;-76
2022/05/27 01:14:22;;;;;;;4.28;2.40;;;11.10;99.90;11.90;94660.00;;;;7394817;19;20893;-76
2022/05/27 01:17:32;;;;;;;5.00;2.13;;;11.00;1.00;11.90;94671.00;;;;7395449;19;20192;-75
2022/05/27 01:20:29;;;;;;;4.13;2.08;;;11.00;1.00;11.70;94666.00;;;;7394377;19;20149;-75
2022/05/27 01:23:18;;;;;;;3.22;2.10;;;10.90;1.00;11.90;94662.00;;;;7393215;19;20662;-75
2022/05/27 01:26:25;;;;;;;5.22;2.13;;;11.00;1.00;12.00;94667.00;;;;7394467;19;20135;-75
2022/05/27 01:29:27;;;;;;;5.35;2.15;;;11.00;1.00;11.80;94666.00;;;;7393729;19;20129;-75
2022/05/27 01:32:09;;;;;;;2.63;1.83;;;11.00;1.00;11.80;94653.00;;;;7396830;19;20181;-75
2022/05/27 01:35:27;;;;;;;4.97;2.10;;;11.00;1.00;11.70;94666.00;;;;7394419;19;20237;-74
2022/05/27 01:38:35;;;;;;;3.47;1.90;;;11.00;1.00;11.40;94658.00;;;;7394116;19;20587;-74
2022/05/27 01:41:16;;;;;;;5.82;2.65;;;10.90;1.00;11.60;94660.00;;;;7395475;19;20648;-74
2022/05/27 01:43:59;;;;;;;3.58;2.13;;;10.80;1.00;11.50;94659.00;;;;7394205;19;20170;-74
2022/05/27 01:46:35;;;;;;;7.93;2.53;;;10.90;1.00;11.50;94641.00;;;;7394365;19;20133;-74
2022/05/27 01:49:15;;;;;;;3.80;2.20;;;10.80;1.00;11.60;94658.00;;;;7394451;19;20200;-76
2022/05/27 01:51:52;;;;;;;5.53;2.70;;;10.90;1.00;11.60;94624.00;;;;7394778;19;20639;-74
2022/05/27 01:54:55;;;;;;;4.82;2.83;;;10.90;1.00;11.60;94650.00;;;;7395645;19;20493;-74
2022/05/27 01:57:36;;;;;;;3.35;2.40;;;10.90;1.00;11.80;94632.00;;;;7393194;19;20132;-76
2022/05/27 02:00:23;;;;;;;4.97;2.45;;;11.00;1.00;11.70;94628.00;;;;7394109;19;20606;-75
2022/05/27 02:02:59;;;;;;;5.07;2.47;;;11.00;1.00;11.70;94622.00;;;;7393596;19;20148;-76
2022/05/27 02:06:00;;;;;;;4.75;2.70;;;11.10;1.00;11.70;94611.00;;;;7392627;19;20213;-74
2022/05/27 02:08:42;;;;;;;4.43;2.70;;;11.10;1.00;11.70;94641.00;;;;7393605;19;20474;-75
2022/05/27 02:11:27;;;;;;;3.95;3.00;;;11.10;1.00;11.70;94612.00;;;;7394753;19;20141;-75
2022/05/27 02:14:18;;;;;;;2.95;2.28;;;11.10;1.00;11.50;94644.00;;;;7392583;19;20152;-74
2022/05/27 02:17:03;;;;;;;6.60;3.00;;;11.10;1.00;11.60;94622.00;;;;7393784;19;20125;-74
2022/05/27 02:19:54;;;;;;;4.25;2.92;;;11.10;1.00;11.70;94620.00;;;;7394715;19;20132;-74
2022/05/27 02:22:40;;;;;;;4.13;2.70;;;11.10;1.00;11.60;94616.00;;;;7392000;19;20156;-74
2022/05/27 02:25:28;;;;;;;7.78;2.97;;;11.00;1.00;11.40;94615.00;;;;7392479;19;20156;-74
2022/05/27 02:28:13;;;;;;;4.15;3.00;;;10.90;1.00;11.50;94583.00;;;;7392336;19;20169;-75
2022/05/27 02:30:47;;;;;;;7.20;3.20;;;10.80;1.00;11.50;94628.00;;;;7392611;19;20140;-74
2022/05/27 02:36:28;;;;;;;4.78;3.00;;;10.90;1.00;11.40;94594.00;;;;7392350;19;20600;-75
2022/05/27 02:39:05;;;;;;;3.50;3.00;;;10.80;1.00;11.30;94620.00;;;;7392793;19;20182;-75
2022/05/27 02:42:04;;;;;;;5.75;2.95;;;10.80;1.00;11.40;94618.00;;;;7391042;19;20595;-77
2022/05/27 02:44:57;;;;;;;5.10;2.95;;;10.70;17.40;11.40;94620.00;;;;7391731;19;20488;-75
2022/05/27 02:47:40;;;;;;;6.03;3.15;;;10.70;86.60;11.30;94614.00;;;;7392638;19;20495;-74
2022/05/27 02:50:58;;;;;;;5.47;3.38;;;10.70;99.90;11.50;94613.00;;;;7394147;19;20137;-75
2022/05/27 02:53:54;;;;;;;6.07;3.35;;;10.80;44.50;11.40;94613.00;;;;7390688;19;20611;-75
2022/05/27 02:56:39;;;;;;;7.67;3.37;;;10.80;44.10;11.40;94619.00;;;;7391138;19;20147;-77
2022/05/27 02:59:14;;;;;;;3.15;2.85;;;10.80;59.10;11.40;94571.00;;;;7390963;19;20125;-75
2022/05/27 03:01:48;;;;;;;7.72;3.50;;;10.70;99.90;11.30;94611.00;;;;7391045;19;20588;-76
2022/05/27 03:04:18;;;;;;;7.70;3.50;;;10.60;99.90;11.40;94597.00;;;;7392011;19;20125;-76
2022/05/27 03:07:24;;;;;;;5.97;4.15;;;10.70;99.90;11.30;94590.00;;;;7390635;19;20121;-76
2022/05/27 03:10:25;;;;;;;6.40;3.60;;;10.70;99.90;11.20;94615.00;;;;7391778;19;20473;-75
2022/05/27 03:13:14;;;;;;;9.23;4.80;;;10.60;99.90;11.50;94615.00;;;;7392118;19;20132;-75
2022/05/27 03:16:21;;;;;;;5.35;4.18;;;10.70;99.90;11.60;94610.00;;;;7392177;19;20149;-74
2022/05/27 03:19:19;;;;;;;4.97;4.32;;;10.80;99.90;11.60;94613.00;;;;7389091;19;20124;-74
2022/05/27 03:22:27;;;;;;;4.75;3.88;;;10.90;99.90;11.60;94607.00;;;;7390732;19;20140;-76
2022/05/27 03:25:14;;;;;;;7.85;4.00;;;11.00;99.90;11.60;94606.00;;;;7390544;19;20128;-75
2022/05/27 03:28:05;;;;;;;5.97;4.28;;;11.00;99.90;11.70;94610.00;;;;7389570;19;20137;-74
2022/05/27 03:30:44;;;;;;;6.78;4.50;;;10.90;99.90;11.60;94597.00;;;;7390816;19;20133;-76
2022/05/27 03:33:48;;;;;;;6.25;4.35;;;10.90;99.90;11.40;94601.00;;;;7390208;19;20605;-74
2022/05/27 03:36:33;;;;;;;8.05;4.22;;;10.90;99.90;11.50;94610.00;;;;7390321;19;20630;-75
2022/05/27 03:39:31;;;;;;;5.57;4.13;;;10.90;99.90;11.50;94584.00;;;;7388395;19;20587;-75
2022/05/27 03:42:05;;;;;;;6.45;4.47;;;11.00;99.90;11.50;94611.00;;;;7389892;19;20158;-74
2022/05/27 03:45:07;;;;;;;7.82;4.43;;;11.00;99.90;11.50;94597.00;;;;7390483;19;20616;-75
2022/05/27 03:47:36;;;;;;;7.78;3.88;;;10.90;99.90;11.50;94603.00;;;;7391886;19;20601;-74
2022/05/27 03:50:16;;;;;;;9.30;4.10;;;10.90;99.90;11.40;94594.00;;;;7390072;19;20135;-75
2022/05/27 03:52:48;;;;;;;6.75;4.28;;;10.90;99.90;11.40;94607.00;;;;7395509;19;20148;-75
2022/05/27 03:55:26;;;;;;;4.70;4.15;;;10.90;99.90;11.60;94617.00;;;;7397837;19;20140;-75
2022/05/27 03:57:56;;;;;;;5.70;4.47;;;10.90;99.90;11.70;94593.00;;;;7396501;19;20608;-75
2022/05/27 04:00:30;;;;;;;10.73;5.20;;;11.00;99.90;11.60;94591.00;;;;7397343;19;20131;-75
2022/05/27 04:02:57;;;;;;;10.13;4.75;;;11.00;99.90;11.60;94584.00;;;;7397873;19;20655;-76
2022/05/27 04:05:24;;;;;;;6.40;4.43;;;11.00;99.90;11.60;94614.00;;;;7397662;19;20121;-75
2022/05/27 04:07:58;;;;;;;8.88;4.80;;;11.00;99.90;11.70;94602.00;;;;7397083;19;20125;-75
2022/05/27 04:10:32;;;;;;;8.00;4.38;;;11.00;99.90;11.60;94593.00;;;;7393765;19;20163;-76
2022/05/27 04:13:06;;;;;;;7.95;4.50;;;11.00;99.90;11.60;94606.00;;;;7398084;19;20137;-75
2022/05/27 04:15:33;;;;;;;6.47;4.20;;;11.00;99.90;11.60;94616.00;;;;7397725;19;20144;-75
2022/05/27 04:18:00;;;;;;;6.93;3.83;;;11.00;99.90;11.90;94603.00;;;;7395532;19;20133;-75
2022/05/27 04:20:34;;;;;;;9.05;4.28;;;11.10;99.90;11.90;94583.00;;;;7394959;19;20635;-75
2022/05/27 04:23:01;;;;;;;6.25;4.07;;;11.30;38.10;11.90;94596.00;;;;7394149;19;20970;-75
2022/05/27 04:25:28;;;;;;;9.85;4.35;;;11.40;1.00;11.90;94617.00;;;;7395368;19;20509;-75
2022/05/27 04:28:02;;;;;;;6.95;4.32;;;11.40;1.00;12.10;94608.00;;;;7395996;19;20149;-75
2022/05/27 04:30:29;;;;;;;9.32;4.45;;;11.50;1.00;12.10;94600.00;;;;7396239;19;20493;-76
2022/05/27 04:32:56;;;;;;;8.10;4.03;;;11.50;1.00;12.20;94614.00;;;;7396052;19;20145;-76
2022/05/27 04:35:31;;;;;;;7.72;4.35;;;11.60;1.00;12.50;94596.00;;;;7396504;19;20132;-76
2022/05/27 04:37:58;;;;;;;6.07;4.35;;;11.70;1.00;12.40;94585.00;;;;7394837;19;20131;-76
2022/05/27 04:40:25;;;;;;;5.80;4.15;;;11.70;1.00;12.40;94601.00;;;;7397142;19;20245;-75
2022/05/27 04:43:01;;;;;;;7.13;4.30;;;11.80;1.00;12.30;94601.00;;;;7396529;19;20576;-75
2022/05/27 04:45:31;;;;;;;7.43;3.70;;;11.90;1.00;12.20;94585.00;;;;7395901;19;20520;-75
2022/05/27 04:47:59;;;;;;;7.22;3.90;;;11.90;99.90;12.40;94594.00;;;;7395200;19;20121;-75
2022/05/27 04:50:36;;;;;;;4.75;3.75;;;11.90;99.90;12.40;94555.00;;;;7396673;19;20188;-75
2022/05/27 04:53:05;;;;;;;8.38;4.57;;;12.00;99.90;12.50;94588.00;;;;7396164;19;20137;-77
2022/05/27 04:55:36;;;;;;;5.57;3.85;;;11.90;99.90;12.50;94580.00;;;;7396153;19;20133;-75
2022/05/27 04:58:11;;;;;;;6.95;3.58;;;11.90;99.90;12.50;94593.00;;;;7394423;19;20483;-75
2022/05/27 05:00:46;;;;;;;6.63;3.60;;;11.90;99.90;12.50;94577.00;;;;7396583;19;20117;-77
2022/05/27 05:03:20;;;;;;;4.75;3.13;;;11.90;99.90;12.40;94586.00;;;;7394875;19;20148;-76
2022/05/27 05:05:49;;;;;;;9.07;3.63;;;11.90;99.90;12.40;94611.00;;;;7395169;19;20600;-76
2022/05/27 05:08:33;;;;;;;6.65;3.47;;;12.00;99.90;12.30;94613.00;;;;7395221;19;20161;-76
2022/05/27 05:11:07;;;;;;;6.05;3.47;;;12.00;99.90;12.40;94592.00;;;;7394896;19;20616;-75
2022/05/27 05:13:35;;;;;;;5.80;3.72;;;12.00;99.90;12.40;94616.00;;;;7390997;19;20136;-76
2022/05/27 05:16:04;;;;;;;7.35;4.13;;;12.00;99.90;12.40;94610.00;;;;7395484;19;20149;-75
2022/05/27 05:18:38;;;;;;;6.50;4.50;;;12.00;99.90;12.40;94596.00;;;;7399030;19;20457;-76
2022/05/27 05:21:05;;;;;;;7.18;3.92;;;12.10;99.90;12.40;94609.00;;;;7394794;19;20176;-76
2022/05/27 05:23:37;;;;;;;5.93;3.75;;;12.10;99.90;12.40;94614.00;;;;7396473;19;20145;-76
2022/05/27 05:26:12;;;;;;;9.23;4.03;;;12.10;99.90;12.60;94589.00;;;;7401061;19;20267;-76
2022/05/27 05:28:39;;;;;;;5.93;3.85;;;12.10;99.90;12.50;94602.00;;;;7401138;19;20601;-76
2022/05/27 05:31:11;;;;;;;6.40;4.00;;;12.10;99.90;12.30;94592.00;;;;7400265;19;20144;-75
2022/05/27 05:33:45;;;;;;;5.63;4.15;;;12.20;99.90;12.60;94611.00;;;;7401111;19;20192;-75
2022/05/27 05:36:13;;;;;;;7.70;3.67;;;12.10;99.90;12.40;94627.00;;;;7401355;19;20133;-74
2022/05/27 05:38:40;;;;;;;6.97;3.90;;;12.10;99.90;12.40;94640.00;;;;7399187;19;20136;-76
2022/05/27 05:41:31;;;;;;;5.03;4.00;;;12.00;99.90;12.50;94606.00;;;;7399338;19;20140;-77
2022/05/27 05:44:00;;;;;;;6.15;4.18;;;12.00;99.90;12.50;94634.00;;;;7401834;19;20200;-74
2022/05/27 05:46:37;;;;;;;7.07;4.43;;;11.90;99.90;12.40;94612.00;;;;7401077;19;20168;-76
2022/05/27 05:49:06;;;;;;;4.43;3.55;;;11.80;99.90;12.40;94631.00;;;;7400216;19;20133;-75
2022/05/27 05:51:40;;;;;;;8.43;4.18;;;11.90;99.90;12.30;94570.00;;;;7397976;19;20141;-75
2022/05/27 05:54:14;;;;;;;5.68;3.80;;;11.90;99.90;12.40;94620.00;;;;7399308;19;20483;-74
2022/05/27 05:56:41;;;;;;;6.57;4.30;;;11.90;99.90;12.50;94596.00;;;;7400439;19;20143;-76
2022/05/27 05:59:10;;;;;;;7.10;4.20;;;11.90;99.90;12.50;94630.00;;;;7396728;19;20592;-76
2022/05/27 06:01:45;;;;;;;7.90;4.40;;;11.90;99.90;12.40;94603.00;;;;7397729;19;20171;-76
2022/05/27 06:04:13;;;;;;;7.97;4.38;;;12.00;99.90;12.40;94635.00;;;;7399462;19;20155;-77
2022/05/27 06:06:41;;;;;;;4.35;3.70;;;12.00;99.90;12.00;94611.00;;;;7399001;19;20128;-76
2022/05/27 06:09:30;;;;;;;4.75;3.75;;;12.00;99.90;12.20;94610.00;;;;7398169;19;20148;-76
2022/05/27 06:12:05;;;;;;;7.07;4.18;;;12.00;99.90;12.40;94604.00;;;;7399334;19;20149;-75
2022/05/27 06:14:39;;;;;;;7.53;4.07;;;12.00;99.90;12.40;94622.00;;;;7399891;19;20156;-76
2022/05/27 06:17:06;;;;;;;6.97;3.53;;;12.00;99.90;12.60;94603.00;;;;7398793;19;20117;-77
2022/05/27 06:19:34;;;;;;;8.98;3.97;;;12.00;99.90;12.50;94638.00;;;;7397079;19;20592;-76
2022/05/27 06:22:08;;;;;;;5.15;4.22;;;12.00;99.90;12.50;94620.00;;;;7397643;19;20532;-76
2022/05/27 06:24:36;;;;;;;5.90;4.22;;;12.00;99.90;12.40;94619.00;;;;7397714;19;20169;-76
2022/05/27 06:27:08;;;;;;;5.22;3.80;;;12.00;99.90;12.30;94617.00;;;;7395495;19;20133;-77
2022/05/27 06:35:21;;;;;;;7.72;4.43;;;11.80;99.90;12.20;94633.00;;;;7394496;19;20821;-76
2022/05/27 06:37:52;;;;;;;8.18;4.18;;;11.70;99.90;12.20;94657.00;;;;7395896;19;20121;-76
2022/05/27 06:40:19;;;;;;;7.57;4.05;;;11.70;99.90;12.20;94635.00;;;;7397201;19;20484;-77
2022/05/27 06:42:56;;;;;;;4.68;3.92;;;11.70;99.90;12.10;94643.00;;;;7399174;19;20485;-76
2022/05/27 06:45:24;;;;;;;7.78;4.85;;;11.70;99.90;12.20;94665.00;;;;7394256;19;20148;-76
2022/05/27 06:47:52;;;;;;;5.10;4.13;;;11.60;99.90;12.20;94659.00;;;;7395673;19;20539;-76
2022/05/27 06:50:26;;;;;;;5.32;4.00;;;11.60;99.90;12.10;94653.00;;;;7396766;19;20165;-76
2022/05/27 06:52:55;;;;;;;5.18;3.92;;;11.60;99.90;11.80;94633.00;;;;7395426;19;20144;-76
2022/05/27 06:55:23;;;;;;;9.10;4.03;;;11.60;99.90;12.10;94642.00;;;;7395449;19;20468;-76
2022/05/27 06:57:57;;;;;;;8.10;4.38;;;11.60;99.90;12.00;94664.00;;;;7395886;19;20132;-76
2022/05/27 07:00:25;;;;;;;9.63;4.40;;;11.70;99.90;12.00;94654.00;;;;7397469;19;20153;-77
2022/05/27 07:02:52;;;;;;;6.47;4.57;;;11.70;99.90;12.10;94660.00;;;;7398873;19;20209;-76
2022/05/27 07:05:26;;;;;;;7.32;4.28;;;11.60;99.90;12.20;94649.00;;;;7397827;19;20137;-75
2022/05/27 07:07:53;;;;;;;7.22;3.80;;;11.80;99.90;12.40;94640.00;;;;7396005;19;20204;-75
2022/05/27 07:10:27;;;;;;;6.20;4.22;;;11.90;99.90;12.50;94632.00;;;;7394142;19;20207;-77
2022/05/27 07:13:14;;;;;;;6.32;4.07;;;12.10;99.90;12.50;94616.00;;;;7394525;19;20140;-78
2022/05/27 07:15:43;;;;;;;6.30;4.28;;;12.10;52.50;12.60;94641.00;;;;7395765;19;20161;-76
2022/05/27 07:18:17;;;;;;;5.25;3.47;;;12.10;53.50;13.00;94627.00;;;;7397431;19;20139;-76
2022/05/27 07:20:45;;;;;;;6.18;3.42;;;12.30;52.50;12.90;94635.00;;;;7398015;19;20187;-76
2022/05/27 07:23:13;;;;;;;8.02;4.07;;;12.40;1.00;12.80;94655.00;;;;7396708;19;20536;-75
2022/05/27 07:25:47;;;;;;;7.40;3.83;;;12.50;1.00;12.80;94635.00;;;;7395562;19;20120;-73
2022/05/27 07:28:14;;;;;;;6.65;4.25;;;12.30;26.10;12.90;94648.00;;;;7393316;19;20165;-78
2022/05/27 07:30:42;;;;;;;4.97;3.42;;;12.20;2.00;12.60;94627.00;;;;7400381;19;20621;-76
2022/05/27 07:33:16;;;;;;;6.22;3.70;;;12.20;97.00;12.80;94657.00;;;;7396931;19;20201;-77
2022/05/27 07:35:44;;;;;;;6.47;4.30;;;12.20;50.70;12.70;94658.00;;;;7398220;19;20485;-75
2022/05/27 07:38:12;;;;;;;5.30;3.97;;;12.20;51.10;12.70;94647.00;;;;7396152;19;20144;-76
2022/05/27 07:40:46;;;;;;;9.43;4.15;;;12.20;1.00;12.40;94633.00;;;;7395812;19;20163;-75
2022/05/27 07:43:13;;;;;;;6.18;3.95;;;12.30;1.00;12.10;94656.00;;;;7391127;19;20140;-76
2022/05/27 07:45:44;;;;;;;5.63;4.32;;;12.20;1.00;12.40;94653.00;;;;7389762;19;20172;-76
2022/05/27 07:48:18;;;;;;;7.70;4.55;;;12.10;52.90;12.40;94646.00;;;;7388116;19;20583;-74
2022/05/27 07:50:45;;;;;;;6.95;3.83;;;12.00;67.30;12.20;94643.00;;;;7388846;19;20141;-75
2022/05/27 07:53:12;;;;;;;6.78;4.10;;;11.90;99.90;12.30;94657.00;;;;7390618;19;20137;-76
2022/05/27 07:55:46;;;;;;;7.07;4.25;;;11.80;99.90;12.20;94655.00;;;;7390032;19;20129;-74
2022/05/27 07:58:13;;;;;;;7.05;4.15;;;11.60;99.90;12.30;94651.00;;;;7388447;19;20137;-75
2022/05/27 08:00:40;;;;;;;5.88;4.38;;;11.60;99.90;12.40;94647.00;;;;7389372;19;20604;-76
2022/05/27 08:03:14;;;;;;;6.63;4.63;;;11.50;99.90;12.30;94639.00;;;;7389765;19;20137;-74
2022/05/27 08:05:43;;;;;;;4.88;3.88;;;11.50;99.90;12.40;94642.00;;;;7389385;19;20145;-74
2022/05/27 08:08:11;;;;;;;5.85;4.45;;;11.60;99.90;12.50;94664.00;;;;7389397;19;20144;-75
2022/05/27 08:10:52;;;;;;;10.50;4.05;;;11.60;99.90;12.60;94651.00;;;;7387933;19;20188;-76
2022/05/27 08:13:26;;;;;;;9.13;4.50;;;11.60;99.90;12.50;94643.00;;;;7390829;19;20206;-74
2022/05/27 08:16:00;;;;;;;8.68;4.30;;;11.60;99.90;12.40;94645.00;;;;7389231;19;20125;-75
2022/05/27 08:18:27;;;;;;;7.78;3.65;;;11.60;99.90;12.40;94653.00;;;;7388169;19;20141;-74
2022/05/27 08:20:54;;;;;;;4.72;3.58;;;11.60;99.90;12.50;94653.00;;;;7388483;19;20519;-77
2022/05/27 08:23:28;;;;;;;4.22;3.70;;;11.60;99.90;12.50;94652.00;;;;7390025;19;20123;-76
2022/05/27 08:25:56;;;;;;;5.80;4.60;;;11.60;99.90;12.40;94657.00;;;;7388866;19;20133;-74
2022/05/27 08:28:24;;;;;;;5.72;3.80;;;11.50;99.90;12.40;94661.00;;;;7388720;19;20145;-73
2022/05/27 08:30:59;;;;;;;5.43;3.60;;;11.50;99.90;12.30;94669.00;;;;7389385;19;20587;-77
2022/05/27 08:38:01;;;;;;;5.90;4.32;;;11.60;99.90;12.40;94671.00;;;;7388953;19;20133;-73
2022/05/27 08:39:12;;;;;;;4.70;4.07;;;11.60;99.90;12.60;94656.00;;;;7388779;19;20189;-75
2022/05/27 08:41:58;;;;;;;4.28;3.42;;;11.70;99.90;12.80;94689.00;;;;7395359;19;20616;-74
2022/05/27 08:45:07;;;;;;;4.75;3.38;;;11.80;99.90;13.50;94683.00;;;;7396175;19;20220;-75
2022/05/27 08:48:05;;;;;;;4.95;3.72;;;12.10;99.90;14.20;94690.00;;;;7395533;19;20143;-76
2022/05/27 08:50:47;;;;;;;7.13;3.05;;;12.60;1.00;14.30;94660.00;;;;7395718;19;20125;-74
2022/05/27 08:53:51;;;;;;;3.70;3.10;;;12.90;99.90;14.50;94681.00;;;;7396784;19;20129;-73
2022/05/27 08:59:38;;;;;;;6.18;3.28;;;13.60;99.90;15.20;94665.00;;;;7395154;19;20170;-75
2022/05/27 09:03:01;;;;;;;4.00;2.70;;;13.90;1.00;15.10;94672.00;;;;7395084;19;20152;-75
2022/05/27 09:06:04;;;;;;;3.08;2.20;;;14.10;1.00;15.40;94658.00;;;;7393518;19;20132;-76
2022/05/27 09:08:32;;;;;;;3.92;2.47;;;14.50;99.90;15.40;94644.00;;;;7396055;19;20140;-76
2022/05/27 09:11:27;;;;;;;6.07;2.42;;;14.60;99.90;15.60;94676.00;;;;7393306;19;20171;-76
2022/05/27 09:14:19;;;;;;;2.75;2.20;;;14.30;99.90;16.00;94655.00;;;;7395112;19;20128;-76
2022/05/27 09:17:01;;;;;;;4.72;2.40;;;14.20;99.90;16.50;94660.00;;;;7396200;19;20148;-74
2022/05/27 09:20:22;;;;;;;4.13;2.38;;;14.50;99.90;16.30;94659.00;;;;7393633;19;20201;-75
2022/05/27 09:23:16;;;;;;;2.92;2.28;;;14.70;99.90;15.80;94646.00;;;;7395081;19;20164;-75
2022/05/27 09:26:10;;;;;;;2.13;1.90;;;14.70;99.90;16.20;94667.00;;;;7395559;19;20137;-76
2022/05/27 09:28:58;;;;;;;3.13;1.80;;;15.00;99.90;15.40;94671.00;;;;7394792;19;20121;-76
2022/05/27 09:31:46;;;;;;;2.03;1.83;;;15.00;99.90;15.60;94642.00;;;;7395524;19;20148;-75
2022/05/27 09:34:26;;;;;;;1.70;1.60;;;15.20;56.50;15.80;94649.00;;;;7395178;19;20616;-75
2022/05/27 09:36:59;;;;;;;3.50;1.88;;;15.10;99.90;15.40;94679.00;;;;7394298;19;20141;-75
2022/05/27 09:39:33;;;;;;;2.05;1.70;;;15.00;99.90;15.90;94643.00;;;;7392464;19;20212;-76
2022/05/27 09:42:30;;;;;;;5.80;1.85;;;15.10;99.90;16.20;94628.00;;;;7393564;19;20133;-75
2022/05/27 09:45:06;;;;;;;1.77;1.67;;;15.10;69.20;17.40;94646.00;;;;7395220;19;20125;-77
2022/05/27 09:47:36;;;;;;;5.55;2.10;;;15.50;1.00;17.40;94666.00;;;;7394643;19;20200;-77
2022/05/27 09:50:17;;;;;;;3.85;2.00;;;15.80;1.00;17.40;94645.00;;;;7393043;19;20141;-75
2022/05/27 09:52:58;;;;;;;1.70;1.50;;;15.90;1.00;18.00;94617.00;;;;7394175;19;20627;-75
2022/05/27 09:55:46;;;;;;;5.10;1.60;;;16.20;1.00;18.50;94648.00;;;;7392909;19;20481;-74
2022/05/27 09:58:31;;;;;;;2.60;1.58;;;16.60;1.00;18.00;94642.00;;;;7392921;19;20125;-76
2022/05/27 10:01:02;;;;;;;2.30;1.67;;;16.80;1.00;17.40;94655.00;;;;7392815;19;20150;-75
2022/05/27 10:03:39;;;;;;;2.92;1.60;;;16.90;1.00;17.60;94623.00;;;;7394122;19;20123;-75
2022/05/27 10:06:19;;;;;;;9.05;2.50;;;16.70;1.00;17.40;94605.00;;;;7394501;19;20141;-76
2022/05/27 10:09:11;;;;;;;1.67;1.50;;;16.50;1.00;17.20;94597.00;;;;7393896;19;20200;-76
2022/05/27 10:11:52;;;;;;;2.40;1.60;;;16.40;1.00;18.00;94620.00;;;;7393358;19;20140;-75
2022/05/27 10:14:33;;;;;;;3.72;1.77;;;16.80;1.00;18.30;94618.00;;;;7393276;19;20495;-76
2022/05/27 10:17:36;;;;;;;3.63;1.27;;;17.10;1.00;18.70;94571.00;;;;7393324;19;20439;-74
2022/05/27 10:20:18;;;;;;;4.00;1.90;;;17.10;1.00;18.80;94598.00;;;;7390737;19;20502;-77
2022/05/27 10:23:10;;;;;;;2.17;1.35;;;17.40;1.00;19.40;94587.00;;;;7392074;19;20144;-75
2022/05/27 10:25:44;;;;;;;3.78;1.38;;;17.90;1.00;19.60;94593.00;;;;7393060;19;20139;-78
2022/05/27 10:28:30;;;;;;;3.53;1.60;;;18.40;99.90;19.50;94579.00;;;;7392765;19;20133;-74
2022/05/27 10:31:16;;;;;;;2.83;1.75;;;18.70;99.90;19.50;94603.00;;;;7392866;19;20144;-74
2022/05/27 10:33:49;;;;;;;2.00;1.33;;;18.20;1.00;18.50;94626.00;;;;7393016;19;20136;-74
2022/05/27 10:36:59;;;;;;;3.85;1.52;;;17.60;1.00;18.60;94622.00;;;;7392764;19;20467;-76
2022/05/27 10:39:56;;;;;;;3.28;1.50;;;17.30;1.00;18.40;94596.00;;;;7392685;19;20622;-75
2022/05/27 10:43:18;;;;;;;1.80;1.65;;;17.10;1.00;18.30;94618.00;;;;7392864;19;20224;-76
2022/05/27 10:45:49;;;;;;;8.02;1.60;;;17.10;1.00;18.60;94630.00;;;;7391349;19;20149;-77
2022/05/27 10:49:26;;;;;;;2.20;1.52;;;17.30;1.00;18.00;94631.00;;;;7392568;19;20611;-76
2022/05/27 10:52:09;;;;;;;4.18;1.80;;;17.20;1.00;17.60;94630.00;;;;7389518;19;20136;-76
2022/05/27 10:55:31;;;;;;;1.67;1.58;;;17.10;1.00;17.60;94623.00;;;;7389212;19;20615;-75
2022/05/27 11:02:07;;;;;;;2.80;1.70;;;17.30;1.00;17.90;94620.00;;;;7388124;19;20637;-75
2022/05/27 11:04:37;;;;;;;2.78;1.30;;;17.10;1.00;18.00;94623.00;;;;7390920;19;20634;-76
2022/05/27 11:07:13;;;;;;;2.72;1.35;;;17.30;1.00;18.20;94594.00;;;;7391809;19;20128;-77
2022/05/27 11:10:11;;;;;;;2.28;1.33;;;17.30;1.00;18.30;94610.00;;;;7390495;19;20168;-77
2022/05/27 11:16:44;;;;;;;1.60;1.50;;;18.00;1.00;20.40;94573.00;;;;7392026;19;20149;-74
2022/05/27 11:19:45;;;;;;;1.60;1.50;;;18.80;1.00;20.50;94590.00;;;;7390464;19;20124;-75
2022/05/27 11:22:55;;;;;;;1.98;1.40;;;19.40;99.90;20.20;94578.00;;;;7388958;19;20137;-79
2022/05/27 11:25:44;;;;;;;1.42;1.20;;;20.00;99.90;20.60;94607.00;;;;7390866;19;20153;-78
2022/05/27 11:28:33;;;;;;;2.45;1.60;;;20.10;99.90;19.80;94617.00;;;;7392085;19;20152;-78
2022/05/27 11:31:54;;;;;;;3.08;1.63;;;20.00;99.90;19.80;94605.00;;;;7390930;19;20121;-79
2022/05/27 11:34:48;;;;;;;2.10;1.40;;;19.30;99.90;20.20;94593.00;;;;7391653;19;20133;-75
2022/05/27 11:38:22;;;;;;;1.90;1.45;;;19.30;99.90;19.70;94602.00;;;;7391369;19;20128;-75
2022/05/27 11:41:27;;;;;;;2.38;1.70;;;18.90;99.90;19.20;94603.00;;;;7387210;19;20141;-76
2022/05/27 11:44:39;;;;;;;3.85;1.42;;;18.60;1.00;19.60;94595.00;;;;7390028;19;20133;-75
2022/05/27 11:47:39;;;;;;;2.03;1.88;;;18.90;1.00;19.20;94614.00;;;;7388191;19;20149;-76
2022/05/27 11:50:47;;;;;;;2.10;1.52;;;18.40;99.90;19.80;94586.00;;;;7385651;19;20152;-75
2022/05/27 11:53:38;;;;;;;2.05;1.60;;;18.30;1.00;20.00;94589.00;;;;7390645;19;20124;-75
2022/05/27 11:56:43;;;;;;;11.90;1.73;;;18.50;1.00;20.30;94584.00;;;;7394195;19;20140;-77
2022/05/27 11:59:40;;;;;;;2.35;1.48;;;18.60;1.00;20.00;94575.00;;;;7383688;19;20644;-77
2022/05/27 12:02:42;;;;;;;2.35;1.50;;;18.70;1.00;20.70;94559.00;;;;7391371;19;20192;-76
2022/05/27 12:05:17;;;;;;;2.55;1.60;;;18.80;1.00;20.60;94551.00;;;;7389463;19;20159;-76
2022/05/27 12:08:00;;;;;;;4.45;1.48;;;19.00;99.90;20.20;94571.00;;;;7389592;19;20144;-77
2022/05/27 12:10:46;;;;;;;2.22;1.63;;;19.00;99.90;19.80;94576.00;;;;7387483;19;20236;-74
2022/05/27 12:13:37;;;;;;;2.75;1.65;;;19.00;99.90;19.10;94575.00;;;;7391324;19;20600;-77
2022/05/27 12:16:20;;;;;;;2.28;1.67;;;18.70;99.90;19.20;94560.00;;;;7397187;19;20567;-77
2022/05/27 12:19:18;;;;;;;7.55;1.77;;;18.50;1.00;19.30;94528.00;;;;7399640;19;20798;-78
2022/05/27 12:21:57;;;;;;;4.65;1.80;;;18.10;1.00;19.30;94539.00;;;;7396203;19;20172;-77